createdAt,value
2022-10-29T00:00:51.192Z,97.80
2022-10-29T00:03:20.360Z,97.90
2022-10-29T00:05:57.076Z,97.40
2022-10-29T00:08:25.262Z,97.80
2022-10-29T00:10:54.568Z,97.30
2022-10-29T00:13:22.670Z,96.00
2022-10-29T00:15:50.629Z,96.20
2022-10-29T00:18:18.580Z,95.90
2022-10-29T00:20:46.515Z,95.50
2022-10-29T00:23:14.480Z,96.20
2022-10-29T00:25:42.428Z,96.00
2022-10-29T00:28:11.701Z,95.80
2022-10-29T00:30:39.626Z,95.70
2022-10-29T00:33:07.606Z,95.80
2022-10-29T00:35:35.587Z,95.30
2022-10-29T00:38:03.563Z,95.50
2022-10-29T00:40:31.492Z,95.20
2022-10-29T00:43:15.097Z,95.60
2022-10-29T00:45:47.818Z,94.10
2022-10-29T00:48:15.848Z,94.80
2022-10-29T00:50:44.828Z,94.80
2022-10-29T00:53:13.296Z,94.80
2022-10-29T00:55:42.077Z,95.20
2022-10-29T00:58:12.453Z,94.70
2022-10-29T01:00:41.920Z,95.10
2022-10-29T01:03:09.965Z,94.90
2022-10-29T01:05:38.348Z,95.20
2022-10-29T01:08:07.101Z,95.50
2022-10-29T01:10:50.845Z,95.30
2022-10-29T01:13:34.353Z,95.70
2022-10-29T01:16:12.155Z,95.80
2022-10-29T01:18:48.435Z,95.90
2022-10-29T01:21:38.957Z,96.30
2022-10-29T01:24:36.676Z,94.60
2022-10-29T01:27:31.762Z,95.60
2022-10-29T01:30:13.896Z,94.50
2022-10-29T01:32:55.061Z,96.40
2022-10-29T01:35:31.251Z,97.00
2022-10-29T01:38:11.208Z,97.00
2022-10-29T01:40:47.858Z,96.90
2022-10-29T01:45:53.991Z,96.20
2022-10-29T01:48:33.123Z,96.40
2022-10-29T01:51:05.775Z,95.90
2022-10-29T01:53:37.318Z,96.00
2022-10-29T01:56:05.842Z,96.10
2022-10-29T01:58:35.210Z,95.90
2022-10-29T02:01:13.877Z,96.60
2022-10-29T02:03:53.151Z,96.30
2022-10-29T02:06:33.757Z,97.50
2022-10-29T02:09:10.079Z,96.80
2022-10-29T02:11:46.285Z,96.80
2022-10-29T02:14:20.031Z,96.80
2022-10-29T02:16:49.091Z,97.40
2022-10-29T02:19:18.407Z,97.50
2022-10-29T02:21:46.334Z,98.00
2022-10-29T02:24:14.364Z,97.80
2022-10-29T02:26:42.328Z,97.20
2022-10-29T02:29:10.326Z,97.70
2022-10-29T02:31:38.243Z,97.70
2022-10-29T02:34:06.171Z,98.40
2022-10-29T02:36:35.638Z,98.60
2022-10-29T02:39:03.576Z,98.40
2022-10-29T02:41:31.531Z,98.90
2022-10-29T02:43:59.518Z,99.60
2022-10-29T02:46:27.493Z,99.90
2022-10-29T02:48:55.427Z,99.90
2022-10-29T02:51:23.371Z,99.90
2022-10-29T02:53:52.693Z,99.90
2022-10-29T02:56:20.632Z,99.90
2022-10-29T02:58:48.601Z,99.90
2022-10-29T03:01:16.593Z,99.90
2022-10-29T03:03:44.589Z,99.90
2022-10-29T05:14:33.828Z,98.20
2022-10-29T05:19:30.228Z,98.10
2022-10-29T05:21:59.560Z,99.90
2022-10-29T05:24:27.479Z,99.90
2022-10-29T05:26:55.437Z,99.90
2022-10-29T05:29:23.401Z,99.90
2022-10-29T05:31:54.309Z,99.60
2022-10-29T05:34:22.520Z,99.80
2022-10-29T05:36:50.688Z,99.60
2022-10-29T05:39:19.985Z,99.90
2022-10-29T05:41:48.209Z,99.80
2022-10-29T05:44:16.120Z,99.50
2022-10-29T05:46:44.095Z,99.20
2022-10-29T05:49:13.556Z,99.60
2022-10-29T05:51:41.473Z,99.80
2022-10-29T05:54:09.410Z,99.90
2022-10-29T05:56:38.843Z,99.90
2022-10-29T05:59:06.797Z,99.90
2022-10-29T06:01:34.873Z,99.90
2022-10-29T06:04:02.932Z,99.90
2022-10-29T06:06:31.165Z,99.90
2022-10-29T06:11:27.444Z,98.00
2022-10-29T06:13:57.962Z,99.40
2022-10-29T06:16:25.895Z,99.20
2022-10-29T06:18:53.851Z,98.60
2022-10-29T06:21:21.799Z,98.30
2022-10-29T06:23:50.693Z,98.40
2022-10-29T06:26:18.642Z,99.90
2022-10-29T06:28:46.592Z,99.90
2022-10-29T06:31:15.885Z,99.90
2022-10-29T06:33:43.831Z,99.90
2022-10-29T06:36:11.791Z,99.90
2022-10-29T06:38:39.736Z,99.90
2022-10-29T06:41:09.562Z,99.90
2022-10-29T06:43:37.532Z,99.90
2022-10-29T06:46:05.755Z,99.90
2022-10-29T06:48:35.052Z,99.90
2022-10-29T06:51:02.976Z,99.90
2022-10-29T06:53:30.933Z,99.90
2022-10-29T06:56:00.528Z,99.90
2022-10-29T06:58:28.484Z,99.90
2022-10-29T07:03:29.360Z,99.90
2022-10-29T07:08:28.917Z,99.90
2022-10-29T07:10:57.232Z,99.90
2022-10-29T07:13:25.227Z,99.90
2022-10-29T07:15:53.229Z,99.90
2022-10-29T07:18:21.183Z,99.90
2022-10-29T07:20:49.158Z,99.90
2022-10-29T07:23:18.502Z,99.90
2022-10-29T07:25:46.688Z,99.90
2022-10-29T07:28:16.538Z,99.90
2022-10-29T07:30:45.708Z,99.90
2022-10-29T07:33:14.602Z,99.90
2022-10-29T07:35:44.693Z,99.90
2022-10-29T07:38:13.728Z,99.90
2022-10-29T07:40:49.618Z,99.90
2022-10-29T07:43:18.367Z,99.90
2022-10-29T07:45:49.802Z,99.90
2022-10-29T07:48:18.535Z,99.90
2022-10-29T07:50:47.022Z,99.90
2022-10-29T07:53:15.276Z,99.90
2022-10-29T07:55:45.453Z,99.90
2022-10-29T07:58:13.983Z,99.90
2022-10-29T08:00:42.686Z,99.90
2022-10-29T08:03:12.591Z,99.90
2022-10-29T08:05:42.791Z,99.90
2022-10-29T08:08:11.168Z,99.30
2022-10-29T08:10:39.143Z,99.10
2022-10-29T08:13:08.740Z,98.60
2022-10-29T08:15:37.128Z,98.30
2022-10-29T08:18:12.198Z,98.80
2022-10-29T08:23:08.719Z,96.50
2022-10-29T08:25:41.198Z,97.80
2022-10-29T08:28:12.266Z,96.60
2022-10-29T08:30:40.881Z,96.90
2022-10-29T08:33:10.715Z,96.40
2022-10-29T08:35:38.712Z,96.10
2022-10-29T08:38:06.663Z,95.80
2022-10-29T08:40:44.347Z,94.30
2022-10-29T08:43:37.523Z,93.90
2022-10-29T08:46:05.716Z,92.00
2022-10-29T08:48:40.099Z,92.40
2022-10-29T08:51:15.509Z,92.00
2022-10-29T08:53:54.122Z,91.60
2022-10-29T08:56:35.565Z,91.80
2022-10-29T08:59:10.198Z,89.40
2022-10-29T09:01:38.809Z,84.50
2022-10-29T09:04:24.509Z,85.00
2022-10-29T09:07:13.774Z,82.30
2022-10-29T09:09:46.874Z,76.10
2022-10-29T09:12:30.277Z,71.40
2022-10-29T09:15:31.531Z,71.30
2022-10-29T09:18:14.865Z,64.20
2022-10-29T09:20:53.342Z,65.80
2022-10-29T09:23:31.381Z,67.00
2022-10-29T09:26:18.326Z,67.10
2022-10-29T09:29:14.845Z,66.80
2022-10-29T09:31:46.724Z,67.20
2022-10-29T09:34:19.034Z,65.60
2022-10-29T09:36:48.629Z,64.00
2022-10-29T09:39:24.599Z,63.40
2022-10-29T09:41:54.755Z,63.50
2022-10-29T09:44:27.113Z,63.50
2022-10-29T09:47:09.665Z,61.20
2022-10-29T09:49:50.004Z,62.10
2022-10-29T09:52:20.464Z,61.30
2022-10-29T09:54:50.687Z,60.60
2022-10-29T09:57:22.745Z,60.10
2022-10-29T09:59:54.741Z,59.60
2022-10-29T10:02:33.422Z,56.70
2022-10-29T10:05:08.039Z,55.80
2022-10-29T10:07:36.026Z,52.10
2022-10-29T10:10:06.119Z,51.70
2022-10-29T10:12:46.761Z,51.60
2022-10-29T10:15:24.704Z,50.60
2022-10-29T10:18:02.163Z,52.00
2022-10-29T10:20:34.441Z,50.30
2022-10-29T10:23:02.551Z,50.60
2022-10-29T10:25:36.254Z,47.80
2022-10-29T10:28:21.256Z,47.00
2022-10-29T10:31:09.023Z,46.70
2022-10-29T10:33:48.784Z,45.70
2022-10-29T10:36:17.288Z,46.10
2022-10-29T10:38:48.277Z,45.10
2022-10-29T10:41:22.434Z,45.30
2022-10-29T10:43:50.574Z,46.40
2022-10-29T10:46:27.297Z,46.00
2022-10-29T10:49:01.811Z,45.30
2022-10-29T10:51:31.733Z,46.50
2022-10-29T10:54:02.556Z,46.10
2022-10-29T10:56:31.016Z,44.70
2022-10-29T10:59:06.583Z,45.00
2022-10-29T11:01:39.537Z,43.70
2022-10-29T11:04:16.150Z,44.40
2022-10-29T11:06:49.406Z,43.80
2022-10-29T11:09:25.360Z,44.20
2022-10-29T11:11:59.714Z,43.10
2022-10-29T11:14:31.499Z,43.80
2022-10-29T11:17:02.905Z,61.50
2022-10-29T11:19:39.530Z,43.00
2022-10-29T11:22:18.351Z,43.00
2022-10-29T11:24:52.536Z,43.30
2022-10-29T11:27:32.490Z,43.20
2022-10-29T11:30:07.226Z,42.90
2022-10-29T11:32:47.671Z,43.10
2022-10-29T11:35:23.050Z,43.60
2022-10-29T11:37:58.800Z,41.70
2022-10-29T11:40:37.088Z,40.20
2022-10-29T11:43:10.623Z,39.70
2022-10-29T11:45:47.919Z,40.50
2022-10-29T11:51:05.795Z,38.30
2022-10-29T11:53:52.456Z,38.80
2022-10-29T11:56:27.103Z,38.40
2022-10-29T11:59:02.566Z,38.00
2022-10-29T12:01:38.908Z,38.00
2022-10-29T12:04:24.030Z,39.30
2022-10-29T12:07:06.423Z,37.50
2022-10-29T12:10:09.582Z,37.80
2022-10-29T12:12:49.860Z,30.30
2022-10-29T12:15:24.617Z,35.20
2022-10-29T12:18:04.928Z,33.60
2022-10-29T12:20:41.318Z,32.80
2022-10-29T12:23:25.294Z,32.50
2022-10-29T12:26:02.563Z,33.40
2022-10-29T12:28:42.808Z,34.80
2022-10-29T12:31:24.339Z,34.00
2022-10-29T12:33:59.346Z,35.20
2022-10-29T12:36:35.215Z,33.20
2022-10-29T12:39:06.781Z,32.70
2022-10-29T12:41:39.918Z,33.80
2022-10-29T12:44:15.184Z,34.30
2022-10-29T12:46:50.089Z,35.00
2022-10-29T12:49:24.152Z,35.90
2022-10-29T12:54:36.919Z,34.20
2022-10-29T12:57:06.622Z,49.20
2022-10-29T12:59:37.185Z,34.20
2022-10-29T13:02:27.034Z,34.80
2022-10-29T13:05:16.205Z,36.60
2022-10-29T13:08:12.640Z,36.00
2022-10-29T13:10:53.875Z,32.20
2022-10-29T13:13:39.643Z,37.20
2022-10-29T13:16:16.094Z,42.90
2022-10-29T13:19:11.417Z,38.10
2022-10-29T13:22:02.169Z,37.30
2022-10-29T13:24:30.763Z,32.50
2022-10-29T13:27:03.127Z,36.00
2022-10-29T13:29:48.266Z,36.80
2022-10-29T13:32:36.035Z,43.60
2022-10-29T13:35:06.648Z,40.70
2022-10-29T13:37:50.600Z,38.00
2022-10-29T13:41:01.327Z,37.20
2022-10-29T13:43:32.673Z,32.60
2022-10-29T13:46:34.427Z,36.00
2022-10-29T13:49:05.768Z,32.20
2022-10-29T13:51:39.925Z,35.40
2022-10-29T13:54:16.293Z,35.20
2022-10-29T13:56:49.361Z,34.70
2022-10-29T13:59:30.030Z,32.90
2022-10-29T14:02:06.535Z,30.20
2022-10-29T14:04:40.095Z,29.80
2022-10-29T14:07:17.715Z,42.80
2022-10-29T14:09:50.189Z,28.60
2022-10-29T14:12:23.062Z,27.90
2022-10-29T14:14:58.960Z,27.80
2022-10-29T14:17:26.908Z,27.40
2022-10-29T14:19:54.861Z,26.40
2022-10-29T14:22:33.440Z,26.50
2022-10-29T14:25:02.888Z,26.80
2022-10-29T14:27:31.113Z,26.30
2022-10-29T14:30:15.291Z,26.60
2022-10-29T14:32:45.328Z,27.20
2022-10-29T14:35:17.109Z,28.70
2022-10-29T14:37:46.432Z,28.80
2022-10-29T14:40:21.045Z,30.60
2022-10-29T14:42:54.460Z,30.30
2022-10-29T14:45:28.334Z,38.60
2022-10-29T14:47:58.276Z,50.60
2022-10-29T14:50:28.274Z,59.30
2022-10-29T14:52:58.085Z,52.70
2022-10-29T14:55:29.069Z,45.00
2022-10-29T14:58:03.766Z,48.20
2022-10-29T15:00:36.969Z,50.50
2022-10-29T15:03:07.146Z,50.20
2022-10-29T15:05:37.127Z,52.00
2022-10-29T15:08:07.482Z,53.70
2022-10-29T15:10:46.644Z,54.60
2022-10-29T15:13:30.415Z,53.00
2022-10-29T15:16:03.018Z,55.20
2022-10-29T15:18:33.237Z,55.90
2022-10-29T15:21:01.773Z,69.00
2022-10-29T15:23:34.071Z,67.10
2022-10-29T15:26:04.511Z,72.50
2022-10-29T15:31:05.072Z,76.60
2022-10-29T15:33:33.312Z,76.30
2022-10-29T15:36:03.349Z,77.90
2022-10-29T15:39:04.034Z,77.30
2022-10-29T15:41:37.488Z,73.80
2022-10-29T15:44:35.186Z,78.20
2022-10-29T15:47:21.926Z,77.40
2022-10-29T15:49:49.894Z,74.00
2022-10-29T15:52:19.940Z,77.50
2022-10-29T15:54:48.589Z,77.40
2022-10-29T15:59:45.793Z,73.80
2022-10-29T16:02:18.311Z,79.30
2022-10-29T16:04:46.426Z,79.10
2022-10-29T16:09:49.057Z,86.70
2022-10-29T16:12:17.015Z,87.10
2022-10-29T16:14:45.070Z,90.90
2022-10-29T16:17:19.011Z,83.80
2022-10-29T16:19:46.962Z,88.00
2022-10-29T16:22:17.518Z,88.70
2022-10-29T16:24:45.483Z,90.40
2022-10-29T16:27:15.723Z,92.10
2022-10-29T16:29:43.988Z,92.40
2022-10-29T16:32:15.656Z,92.40
2022-10-29T16:34:45.358Z,92.30
2022-10-29T16:37:14.688Z,92.20
2022-10-29T16:39:42.726Z,92.40
2022-10-29T16:42:25.267Z,92.90
2022-10-29T16:44:53.209Z,93.00
2022-10-29T16:47:21.156Z,93.70
2022-10-29T16:49:50.507Z,94.70
2022-10-29T16:52:22.348Z,95.00
2022-10-29T16:54:51.993Z,96.50
2022-10-29T16:59:48.200Z,94.80
2022-10-29T17:02:16.201Z,96.20
2022-10-29T17:04:44.197Z,96.60
2022-10-29T17:07:13.504Z,96.50
2022-10-29T17:09:41.476Z,96.40
2022-10-29T17:12:09.428Z,96.40
2022-10-29T17:14:37.358Z,96.50
2022-10-29T17:19:33.588Z,94.70
2022-10-29T17:22:04.118Z,96.40
2022-10-29T17:24:33.445Z,96.20
2022-10-29T17:29:35.221Z,93.90
2022-10-29T17:32:04.901Z,96.00
2022-10-29T17:34:33.111Z,96.10
2022-10-29T17:39:29.442Z,96.30
2022-10-29T17:41:58.744Z,97.00
2022-10-29T17:44:27.542Z,97.50
2022-10-29T17:46:55.848Z,97.50
2022-10-29T17:49:23.859Z,97.20
2022-10-29T17:51:51.776Z,97.40
2022-10-29T17:54:21.303Z,97.30
2022-10-29T17:56:49.310Z,97.60
2022-10-29T17:59:18.641Z,97.40
2022-10-29T18:01:46.749Z,97.70
2022-10-29T18:04:14.914Z,97.90
2022-10-29T18:06:42.925Z,98.40
2022-10-29T18:09:11.017Z,98.40
2022-10-29T18:11:38.968Z,97.90
2022-10-29T18:14:06.888Z,99.10
2022-10-29T18:16:36.201Z,99.20
2022-10-29T18:19:04.166Z,99.50
2022-10-29T18:21:32.519Z,99.80
2022-10-29T18:26:30.658Z,98.40
2022-10-29T18:29:00.084Z,99.90
2022-10-29T18:31:30.843Z,99.90
2022-10-29T18:34:01.652Z,99.90
2022-10-29T18:36:29.600Z,99.90
2022-10-29T18:41:27.669Z,99.90
2022-10-29T18:46:24.855Z,99.90
2022-10-29T18:48:53.143Z,99.10
2022-10-29T18:51:24.304Z,98.30
2022-10-29T18:53:52.929Z,98.20
2022-10-29T18:56:23.240Z,98.40
2022-10-29T18:58:51.345Z,99.30
2022-10-29T19:01:22.505Z,95.30
2022-10-29T19:03:51.888Z,95.30
2022-10-29T19:06:22.627Z,95.90
2022-10-29T19:08:50.923Z,95.80
2022-10-29T19:11:20.415Z,95.10
2022-10-29T19:13:51.365Z,95.60
2022-10-29T19:16:19.913Z,96.30
2022-10-29T19:18:48.605Z,95.40
2022-10-29T19:21:18.523Z,95.50
2022-10-29T19:23:48.039Z,95.60
2022-10-29T19:26:17.483Z,95.90
2022-10-29T19:28:46.355Z,97.00
2022-10-29T19:31:16.001Z,97.50
2022-10-29T19:33:48.043Z,98.70
2022-10-29T19:36:16.213Z,98.20
2022-10-29T19:38:44.652Z,98.10
2022-10-29T19:41:14.467Z,98.00
2022-10-29T19:43:42.403Z,98.00
2022-10-29T19:46:13.082Z,97.70
2022-10-29T19:48:41.761Z,98.40
2022-10-29T19:51:10.937Z,97.20
2022-10-29T19:53:39.848Z,97.40
2022-10-29T19:56:11.504Z,97.40
2022-10-29T19:58:40.921Z,97.20
2022-10-29T20:01:13.005Z,98.00
2022-10-29T20:06:12.251Z,97.30
2022-10-29T20:08:40.390Z,97.70
2022-10-29T20:11:08.752Z,97.70
2022-10-29T20:13:36.784Z,98.00
2022-10-29T20:16:10.347Z,98.30
2022-10-29T20:18:39.171Z,97.70
2022-10-29T20:21:08.096Z,97.80
2022-10-29T20:28:32.890Z,94.50
2022-10-29T20:31:29.697Z,95.10
2022-10-29T20:34:00.225Z,96.00
2022-10-29T20:36:30.831Z,96.30
2022-10-29T20:38:59.155Z,95.80
2022-10-29T20:41:27.765Z,95.30
2022-10-29T20:43:59.220Z,96.40
2022-10-29T20:46:28.798Z,96.50
2022-10-29T20:48:56.828Z,96.40
2022-10-29T20:51:25.175Z,96.10
2022-10-29T20:53:53.593Z,96.30
2022-10-29T20:56:23.725Z,96.20
2022-10-29T20:58:52.037Z,95.90
2022-10-29T21:01:21.843Z,99.90
2022-10-29T21:03:51.949Z,95.10
2022-10-29T21:06:20.283Z,95.40
2022-10-29T21:08:49.174Z,95.40
2022-10-29T21:11:18.273Z,95.50
2022-10-29T21:13:46.819Z,95.50
2022-10-29T21:16:17.885Z,95.60
2022-10-29T21:18:48.792Z,94.80
2022-10-29T21:21:18.269Z,94.70
2022-10-29T21:23:46.662Z,94.80
2022-10-29T21:26:16.563Z,94.90
2022-10-29T21:28:44.957Z,94.20
2022-10-29T21:31:12.960Z,94.00
2022-10-29T21:33:41.203Z,94.30
2022-10-29T21:36:11.110Z,94.80
2022-10-29T21:38:40.454Z,95.00
2022-10-29T21:41:08.400Z,95.10
2022-10-29T21:43:36.614Z,95.10
2022-10-29T21:46:04.638Z,95.10
2022-10-29T21:48:32.623Z,94.70
2022-10-29T21:51:02.814Z,94.90
2022-10-29T21:53:30.913Z,95.00
2022-10-29T21:56:01.500Z,94.80
2022-10-29T21:58:29.829Z,95.40
2022-10-29T22:01:05.417Z,95.10
2022-10-29T22:03:34.786Z,95.30
2022-10-29T22:06:06.886Z,94.70
2022-10-29T22:08:34.956Z,94.80
2022-10-29T22:11:05.085Z,94.60
2022-10-29T22:13:34.238Z,95.20
2022-10-29T22:16:02.551Z,94.90
2022-10-29T22:18:31.289Z,95.60
2022-10-29T22:21:07.960Z,95.60
2022-10-29T22:23:37.895Z,95.60
2022-10-29T22:26:07.371Z,95.80
2022-10-29T22:28:35.282Z,95.10
2022-10-29T22:31:04.552Z,95.70
2022-10-29T22:33:33.132Z,95.50
2022-10-29T22:36:10.612Z,95.90
2022-10-29T22:38:38.753Z,96.00
2022-10-29T22:41:09.766Z,96.80
2022-10-29T22:43:38.419Z,97.10
2022-10-29T22:46:07.778Z,97.50
2022-10-29T22:48:35.997Z,97.10
2022-10-29T22:51:05.826Z,97.40
2022-10-29T22:53:34.271Z,97.10
2022-10-29T22:56:03.332Z,97.00
2022-10-29T22:58:32.922Z,97.00
2022-10-29T23:01:05.522Z,96.90
2022-10-29T23:03:33.930Z,96.20
2022-10-29T23:06:04.082Z,95.10
2022-10-29T23:08:32.423Z,94.90
2022-10-29T23:11:04.378Z,94.90
2022-10-29T23:13:33.671Z,95.80
2022-10-29T23:16:01.914Z,95.90
2022-10-29T23:18:29.881Z,95.30
2022-10-29T23:21:01.802Z,95.60
2022-10-29T23:23:30.263Z,96.20
2022-10-29T23:26:01.513Z,96.30
2022-10-29T23:28:29.999Z,96.40
2022-10-29T23:31:00.582Z,96.80
2022-10-29T23:33:29.124Z,96.50
2022-10-29T23:35:57.119Z,97.20
2022-10-29T23:38:25.027Z,97.00
2022-10-29T23:40:52.986Z,97.30
2022-10-29T23:43:20.924Z,97.40
2022-10-29T23:45:48.882Z,97.70
2022-10-29T23:48:18.354Z,98.00
2022-10-29T23:50:46.650Z,97.80
2022-10-29T23:53:14.854Z,97.70
2022-10-29T23:55:43.630Z,97.20
2022-10-29T23:58:12.065Z,97.50
